createdAt,value
2018-07-25T00:00:13.981Z,0
2018-07-25T00:01:23.819Z,0
2018-07-25T00:02:33.617Z,0
2018-07-25T00:03:43.406Z,0
2018-07-25T00:04:53.466Z,0
2018-07-25T00:06:03.535Z,0
2018-07-25T00:07:13.660Z,0
2018-07-25T00:08:23.457Z,0
2018-07-25T00:09:33.007Z,0
2018-07-25T00:10:42.822Z,0
2018-07-25T00:11:52.358Z,0
2018-07-25T00:13:02.486Z,0
2018-07-25T00:14:12.574Z,0
2018-07-25T00:15:22.367Z,0
2018-07-25T00:16:32.163Z,0
2018-07-25T00:17:41.984Z,0
2018-07-25T00:18:51.827Z,0
2018-07-25T00:20:01.915Z,0
2018-07-25T00:21:11.725Z,0
2018-07-25T00:22:21.517Z,0
2018-07-25T00:23:31.336Z,0
2018-07-25T00:24:41.465Z,0
2018-07-25T00:25:50.739Z,0
2018-07-25T00:27:00.537Z,0
2018-07-25T00:28:10.053Z,0
2018-07-25T00:29:20.116Z,0
2018-07-25T00:30:30.241Z,0
2018-07-25T00:31:40.334Z,0
2018-07-25T00:32:50.136Z,0
2018-07-25T00:33:59.947Z,0
2018-07-25T00:35:10.016Z,0
2018-07-25T00:36:20.165Z,0
2018-07-25T00:37:29.983Z,0
2018-07-25T00:38:39.498Z,0
2018-07-25T00:39:49.551Z,0
2018-07-25T00:40:59.624Z,0
2018-07-25T00:42:09.207Z,0
2018-07-25T00:43:19.277Z,0
2018-07-25T00:44:29.331Z,0
2018-07-25T00:45:39.399Z,0
2018-07-25T00:46:49.197Z,0
2018-07-25T00:47:59.030Z,0
2018-07-25T00:49:09.078Z,0
2018-07-25T00:50:19.150Z,0
2018-07-25T00:51:28.953Z,0
2018-07-25T00:52:39.050Z,0
2018-07-25T00:53:49.180Z,0
2018-07-25T00:54:58.977Z,0
2018-07-25T00:56:09.066Z,0
2018-07-25T00:57:18.872Z,0
2018-07-25T00:58:28.665Z,0
2018-07-25T00:59:38.539Z,0
2018-07-25T01:00:48.607Z,0
2018-07-25T01:01:58.713Z,0
2018-07-25T01:03:08.510Z,0
2018-07-25T01:04:18.315Z,0
2018-07-25T01:05:28.442Z,0
2018-07-25T01:06:38.509Z,0
2018-07-25T01:07:48.570Z,0
2018-07-25T01:08:58.643Z,0
2018-07-25T01:10:08.454Z,0
2018-07-25T01:11:18.578Z,0
2018-07-25T01:12:28.672Z,0
2018-07-25T01:13:38.472Z,0
2018-07-25T01:14:48.559Z,0
2018-07-25T01:15:58.422Z,0
2018-07-25T01:17:07.989Z,0
2018-07-25T01:18:18.070Z,0
2018-07-25T01:19:27.337Z,0
2018-07-25T01:20:37.123Z,0
2018-07-25T01:21:46.932Z,0
2018-07-25T01:22:57.042Z,0
2018-07-25T01:24:06.851Z,0
2018-07-25T01:25:16.924Z,0
2018-07-25T01:26:26.977Z,0
2018-07-25T01:27:37.021Z,0
2018-07-25T01:28:47.155Z,0
2018-07-25T01:29:57.012Z,0
2018-07-25T01:31:07.065Z,0
2018-07-25T01:32:16.859Z,0
2018-07-25T01:33:26.914Z,0
2018-07-25T01:34:37.027Z,0
2018-07-25T01:35:46.838Z,0
2018-07-25T01:36:56.904Z,0
2018-07-25T01:38:06.426Z,0
2018-07-25T01:39:16.238Z,0
2018-07-25T01:40:26.365Z,0
2018-07-25T01:41:36.165Z,0
2018-07-25T01:42:46.248Z,0
2018-07-25T01:43:56.047Z,0
2018-07-25T01:45:05.580Z,0
2018-07-25T01:46:15.698Z,0
2018-07-25T01:47:25.492Z,0
2018-07-25T01:48:35.551Z,0
2018-07-25T01:49:45.609Z,0
2018-07-25T01:50:55.406Z,0
2018-07-25T01:52:05.536Z,0
2018-07-25T01:53:15.325Z,0
2018-07-25T01:54:24.595Z,0
2018-07-25T01:55:34.118Z,0
2018-07-25T01:56:44.177Z,0
2018-07-25T01:57:53.749Z,0
2018-07-25T01:59:03.820Z,0
2018-07-25T02:00:13.892Z,0
2018-07-25T02:01:24.081Z,0
2018-07-25T02:02:34.175Z,0
2018-07-25T02:03:44.313Z,0
2018-07-25T02:04:54.100Z,0
2018-07-25T02:06:04.169Z,0
2018-07-25T02:07:14.239Z,0
2018-07-25T02:08:24.860Z,0
2018-07-25T02:09:34.996Z,0
2018-07-25T02:10:44.791Z,0
2018-07-25T02:11:54.876Z,0
2018-07-25T02:13:04.407Z,0
2018-07-25T02:14:14.476Z,0
2018-07-25T02:15:24.581Z,0
2018-07-25T02:16:34.647Z,0
2018-07-25T02:17:44.715Z,0
2018-07-25T02:18:54.258Z,0
2018-07-25T02:20:04.330Z,0
2018-07-25T02:21:14.457Z,0
2018-07-25T02:22:24.537Z,5
2018-07-25T02:23:34.608Z,5
2018-07-25T02:24:44.696Z,5
2018-07-25T02:25:54.775Z,5
2018-07-25T02:27:04.075Z,5
2018-07-25T02:28:14.150Z,5
2018-07-25T02:29:23.959Z,5
2018-07-25T02:30:33.761Z,5
2018-07-25T02:31:43.856Z,5
2018-07-25T02:32:54.004Z,5
2018-07-25T02:34:04.095Z,10
2018-07-25T02:35:14.188Z,10
2018-07-25T02:36:23.702Z,10
2018-07-25T02:37:33.528Z,10
2018-07-25T02:38:43.668Z,10
2018-07-25T02:39:53.759Z,10
2018-07-25T02:41:03.017Z,10
2018-07-25T02:42:12.847Z,15
2018-07-25T02:43:22.917Z,15
2018-07-25T02:44:32.806Z,15
2018-07-25T02:45:42.608Z,15
2018-07-25T02:46:52.405Z,15
2018-07-25T02:48:02.533Z,20
2018-07-25T02:49:12.340Z,20
2018-07-25T02:50:22.484Z,20
2018-07-25T02:51:32.287Z,20
2018-07-25T02:52:42.367Z,20
2018-07-25T02:53:51.905Z,25
2018-07-25T02:55:01.981Z,25
2018-07-25T02:56:11.572Z,25
2018-07-25T02:57:21.660Z,25
2018-07-25T02:58:31.736Z,30
2018-07-25T02:59:41.806Z,30
2018-07-25T03:03:41.492Z,35
2018-07-25T03:04:51.290Z,35
2018-07-25T03:06:01.378Z,35
2018-07-25T03:07:10.917Z,40
2018-07-25T03:08:21.006Z,40
2018-07-25T03:09:30.856Z,40
2018-07-25T03:10:40.943Z,40
2018-07-25T03:11:51.010Z,40
2018-07-25T03:13:00.544Z,45
2018-07-25T03:14:10.633Z,45
2018-07-25T03:15:20.497Z,45
2018-07-25T03:16:30.582Z,45
2018-07-25T03:17:40.114Z,45
2018-07-25T03:18:49.900Z,50
2018-07-25T03:19:59.965Z,50
2018-07-25T03:21:09.819Z,50
2018-07-25T03:22:19.895Z,50
2018-07-25T03:23:29.970Z,50
2018-07-25T03:24:40.042Z,50
2018-07-25T03:25:50.135Z,55
2018-07-25T03:27:00.257Z,55
2018-07-25T03:28:10.333Z,55
2018-07-25T03:29:20.413Z,60
2018-07-25T03:30:30.206Z,60
2018-07-25T03:31:40.463Z,60
2018-07-25T03:32:50.655Z,65
2018-07-25T03:34:00.452Z,65
2018-07-25T03:35:10.537Z,65
2018-07-25T03:36:20.621Z,65
2018-07-25T03:37:30.644Z,70
2018-07-25T03:38:40.575Z,70
2018-07-25T03:39:50.643Z,75
2018-07-25T03:41:00.199Z,80
2018-07-25T03:42:10.264Z,80
2018-07-25T03:43:20.334Z,80
2018-07-25T03:44:30.171Z,80
2018-07-25T03:45:39.981Z,80
2018-07-25T03:46:49.784Z,80
2018-07-25T03:47:59.574Z,85
2018-07-25T03:49:09.388Z,85
2018-07-25T03:50:19.244Z,90
2018-07-25T03:51:29.332Z,90
2018-07-25T03:52:39.393Z,90
2018-07-25T03:53:49.210Z,90
2018-07-25T03:54:59.273Z,95
2018-07-25T03:56:09.402Z,95
2018-07-25T03:57:19.206Z,95
2018-07-25T03:58:28.747Z,100
2018-07-25T03:59:38.814Z,100
2018-07-25T04:00:48.601Z,105
2018-07-25T04:01:58.665Z,105
2018-07-25T04:03:08.753Z,105
2018-07-25T04:04:18.807Z,105
2018-07-25T04:05:28.859Z,110
2018-07-25T04:06:38.936Z,110
2018-07-25T04:07:48.252Z,110
2018-07-25T04:08:58.337Z,110
2018-07-25T04:10:08.145Z,115
2018-07-25T04:11:18.218Z,115
2018-07-25T04:12:28.291Z,120
2018-07-25T04:13:38.403Z,120
2018-07-25T04:14:48.476Z,120
2018-07-25T04:15:58.548Z,125
2018-07-25T04:17:08.631Z,125
2018-07-25T04:18:18.431Z,130
2018-07-25T04:19:28.568Z,130
2018-07-25T04:20:38.360Z,130
2018-07-25T04:21:48.438Z,130
2018-07-25T04:22:58.249Z,130
2018-07-25T04:24:08.391Z,130
2018-07-25T04:25:18.526Z,130
2018-07-25T04:26:28.331Z,130
2018-07-25T04:27:38.139Z,130
2018-07-25T04:28:47.953Z,130
2018-07-25T04:29:57.763Z,130
2018-07-25T04:31:07.624Z,135
2018-07-25T04:32:17.726Z,135
2018-07-25T04:33:27.538Z,135
2018-07-25T04:34:37.347Z,135
2018-07-25T04:35:47.435Z,135
2018-07-25T04:36:57.567Z,130
2018-07-25T04:38:07.404Z,130
2018-07-25T04:39:16.661Z,135
2018-07-25T04:40:26.191Z,135
2018-07-25T04:41:36.266Z,140
2018-07-25T04:42:46.633Z,140
2018-07-25T04:43:56.511Z,140
2018-07-25T04:45:06.329Z,145
2018-07-25T04:46:16.889Z,145
2018-07-25T04:47:26.791Z,145
2018-07-25T04:48:36.932Z,145
2018-07-25T04:49:46.751Z,145
2018-07-25T04:50:56.553Z,145
2018-07-25T04:52:06.349Z,145
2018-07-25T04:53:16.454Z,145
2018-07-25T04:54:26.304Z,140
2018-07-25T04:55:36.101Z,140
2018-07-25T04:56:45.925Z,150
2018-07-25T04:57:55.731Z,145
2018-07-25T04:59:05.797Z,145
2018-07-25T05:00:15.684Z,145
2018-07-25T05:01:25.770Z,150
2018-07-25T05:02:35.029Z,150
2018-07-25T05:03:44.555Z,155
2018-07-25T05:04:54.660Z,155
2018-07-25T05:06:04.235Z,155
2018-07-25T05:07:14.342Z,155
2018-07-25T05:08:24.155Z,155
2018-07-25T05:09:33.677Z,155
2018-07-25T05:10:43.755Z,160
2018-07-25T05:11:53.614Z,160
2018-07-25T05:13:03.682Z,160
2018-07-25T05:14:13.486Z,165
2018-07-25T05:15:23.580Z,160
2018-07-25T05:16:33.657Z,160
2018-07-25T05:17:43.513Z,160
2018-07-25T05:18:53.039Z,160
2018-07-25T05:20:02.843Z,160
2018-07-25T05:21:12.916Z,165
2018-07-25T05:22:22.723Z,170
2018-07-25T05:23:32.994Z,170
2018-07-25T05:24:42.789Z,170
2018-07-25T05:25:52.870Z,165
2018-07-25T05:27:02.406Z,165
2018-07-25T05:28:12.218Z,160
2018-07-25T05:29:22.083Z,155
2018-07-25T05:30:31.886Z,150
2018-07-25T05:31:41.963Z,155
2018-07-25T05:32:51.506Z,160
2018-07-25T05:34:01.589Z,155
2018-07-25T05:35:11.435Z,155
2018-07-25T05:36:21.516Z,160
2018-07-25T05:37:31.055Z,155
2018-07-25T05:38:40.849Z,165
2018-07-25T05:39:50.928Z,165
2018-07-25T05:41:01.352Z,165
2018-07-25T05:42:11.173Z,165
2018-07-25T05:43:21.253Z,165
2018-07-25T05:44:31.042Z,165
2018-07-25T05:45:40.838Z,165
2018-07-25T05:46:50.680Z,165
2018-07-25T05:48:00.500Z,170
2018-07-25T05:49:10.315Z,170
2018-07-25T05:50:20.114Z,170
2018-07-25T05:51:29.651Z,180
2018-07-25T05:52:39.509Z,175
2018-07-25T05:53:49.589Z,175
2018-07-25T05:54:59.652Z,175
2018-07-25T05:56:09.746Z,175
2018-07-25T05:57:19.580Z,180
2018-07-25T05:58:29.444Z,175
2018-07-25T05:59:39.253Z,175
2018-07-25T06:00:49.327Z,175
2018-07-25T06:01:59.408Z,170
2018-07-25T06:03:10.449Z,175
2018-07-25T06:04:20.901Z,175
2018-07-25T06:05:31.066Z,180
2018-07-25T06:06:40.594Z,180
2018-07-25T06:07:50.406Z,180
2018-07-25T06:09:00.475Z,180
2018-07-25T06:10:10.348Z,180
2018-07-25T06:11:20.160Z,175
2018-07-25T06:12:29.682Z,175
2018-07-25T06:13:39.762Z,175
2018-07-25T06:14:49.841Z,170
2018-07-25T06:15:59.955Z,175
2018-07-25T06:17:10.031Z,170
2018-07-25T06:18:19.833Z,165
2018-07-25T06:19:29.363Z,165
2018-07-25T06:20:39.497Z,175
2018-07-25T06:21:49.406Z,175
2018-07-25T06:22:59.496Z,175
2018-07-25T06:24:09.296Z,180
2018-07-25T06:25:19.366Z,180
2018-07-25T06:26:28.949Z,180
2018-07-25T06:27:38.824Z,180
2018-07-25T06:28:48.364Z,180
2018-07-25T06:29:58.158Z,185
2018-07-25T06:31:07.685Z,185
2018-07-25T06:32:17.514Z,180
2018-07-25T06:33:27.352Z,185
2018-07-25T06:34:37.161Z,185
2018-07-25T06:35:47.247Z,185
2018-07-25T06:37:12.971Z,185
2018-07-25T06:38:23.373Z,180
2018-07-25T06:39:33.698Z,185
2018-07-25T06:40:43.528Z,185
2018-07-25T06:41:53.611Z,185
2018-07-25T06:43:03.411Z,185
2018-07-25T06:44:13.278Z,185
2018-07-25T06:45:23.098Z,185
2018-07-25T06:46:32.635Z,185
2018-07-25T06:47:42.426Z,185
2018-07-25T06:48:52.487Z,180
2018-07-25T06:50:02.616Z,190
2018-07-25T06:51:12.438Z,190
2018-07-25T06:52:22.527Z,190
2018-07-25T06:53:32.059Z,195
2018-07-25T06:54:41.876Z,195
2018-07-25T06:55:52.008Z,195
2018-07-25T06:57:01.548Z,195
2018-07-25T06:58:11.117Z,200
2018-07-25T06:59:20.643Z,200
2018-07-25T07:00:30.449Z,195
2018-07-25T07:01:40.307Z,195
2018-07-25T07:02:50.105Z,190
2018-07-25T07:03:59.922Z,195
2018-07-25T07:05:09.175Z,195
2018-07-25T07:06:19.303Z,195
2018-07-25T07:07:28.881Z,195
2018-07-25T07:08:38.688Z,200
2018-07-25T07:09:48.224Z,200
2018-07-25T07:10:57.489Z,205
2018-07-25T07:12:07.783Z,205
2018-07-25T07:13:17.929Z,205
2018-07-25T07:14:28.028Z,210
2018-07-25T07:15:37.555Z,215
2018-07-25T07:16:47.640Z,215
2018-07-25T07:17:57.723Z,215
2018-07-25T07:19:07.834Z,220
2018-07-25T07:20:17.908Z,220
2018-07-25T07:21:27.695Z,225
2018-07-25T07:22:37.235Z,230
2018-07-25T07:23:47.314Z,230
2018-07-25T07:24:57.473Z,240
2018-07-25T07:26:06.737Z,245
2018-07-25T07:27:16.815Z,245
2018-07-25T07:28:26.618Z,250
2018-07-25T07:29:36.687Z,250
2018-07-25T07:30:46.820Z,255
2018-07-25T07:31:56.626Z,255
2018-07-25T07:33:06.433Z,260
2018-07-25T07:34:16.232Z,255
2018-07-25T07:35:26.326Z,245
2018-07-25T07:36:36.172Z,240
2018-07-25T07:37:46.589Z,230
2018-07-25T07:38:56.669Z,225
2018-07-25T07:40:06.482Z,220
2018-07-25T07:41:16.010Z,215
2018-07-25T07:42:25.859Z,220
2018-07-25T07:43:35.933Z,225
2018-07-25T07:44:46.028Z,230
2018-07-25T07:45:55.828Z,240
2018-07-25T07:47:05.640Z,250
2018-07-25T07:48:15.767Z,240
2018-07-25T07:49:25.848Z,235
2018-07-25T07:50:35.661Z,230
2018-07-25T07:51:45.469Z,225
2018-07-25T07:52:55.004Z,225
2018-07-25T07:54:05.166Z,220
2018-07-25T07:55:14.491Z,215
2018-07-25T07:56:24.321Z,205
2018-07-25T07:57:34.158Z,185
2018-07-25T07:58:44.228Z,185
2018-07-25T07:59:53.816Z,190
2018-07-25T08:01:03.623Z,200
2018-07-25T08:02:13.680Z,200
2018-07-25T08:03:23.503Z,205
2018-07-25T08:04:33.316Z,215
2018-07-25T08:05:43.190Z,215
2018-07-25T08:06:52.717Z,215
2018-07-25T08:08:02.237Z,220
2018-07-25T08:09:11.504Z,205
2018-07-25T08:10:21.308Z,210
2018-07-25T08:11:31.437Z,205
2018-07-25T08:12:41.501Z,200
2018-07-25T08:13:51.327Z,215
2018-07-25T08:15:01.417Z,225
2018-07-25T08:16:11.520Z,225
2018-07-25T08:17:21.655Z,220
2018-07-25T08:18:31.785Z,220
2018-07-25T08:19:41.644Z,225
2018-07-25T08:20:51.651Z,230
2018-07-25T08:22:01.723Z,230
2018-07-25T08:23:11.309Z,230
2018-07-25T08:24:21.123Z,245
2018-07-25T08:25:30.924Z,255
2018-07-25T08:26:40.719Z,235
2018-07-25T08:27:50.524Z,230
2018-07-25T08:29:00.655Z,225
2018-07-25T08:30:10.454Z,225
2018-07-25T08:31:20.516Z,225
2018-07-25T08:32:30.324Z,235
2018-07-25T08:33:40.132Z,250
2018-07-25T08:34:50.296Z,260
2018-07-25T08:36:00.200Z,255
2018-07-25T08:37:10.013Z,240
2018-07-25T08:38:19.804Z,240
2018-07-25T08:39:29.077Z,235
2018-07-25T08:40:39.217Z,225
2018-07-25T08:41:49.469Z,230
2018-07-25T08:42:59.549Z,230
2018-07-25T08:44:09.341Z,230
2018-07-25T08:45:19.144Z,235
2018-07-25T08:46:29.003Z,235
2018-07-25T08:47:38.823Z,235
2018-07-25T08:48:48.646Z,235
2018-07-25T08:49:58.715Z,240
2018-07-25T08:51:08.249Z,245
2018-07-25T08:52:18.110Z,240
2018-07-25T08:53:27.626Z,240
2018-07-25T08:54:37.213Z,240
2018-07-25T08:55:47.289Z,245
2018-07-25T08:56:57.091Z,245
2018-07-25T08:58:06.953Z,245
2018-07-25T08:59:17.022Z,245
2018-07-25T09:00:26.575Z,245
2018-07-25T09:01:36.363Z,245
2018-07-25T09:02:46.421Z,250
2018-07-25T09:03:56.261Z,260
2018-07-25T09:05:06.329Z,260
2018-07-25T09:06:15.603Z,255
2018-07-25T09:07:25.729Z,250
2018-07-25T09:08:35.582Z,250
2018-07-25T09:09:46.046Z,250
2018-07-25T09:10:56.205Z,250
2018-07-25T09:12:06.291Z,255
2018-07-25T09:13:16.712Z,255
2018-07-25T09:14:26.787Z,230
2018-07-25T09:15:36.929Z,255
2018-07-25T09:16:47.126Z,260
2018-07-25T09:17:56.656Z,260
2018-07-25T09:19:07.132Z,265
2018-07-25T09:20:16.958Z,270
2018-07-25T09:21:27.066Z,280
2018-07-25T09:22:36.605Z,275
2018-07-25T09:23:46.667Z,275
2018-07-25T09:24:56.755Z,275
2018-07-25T09:26:06.293Z,280
2018-07-25T09:27:16.204Z,280
2018-07-25T09:28:26.626Z,285
2018-07-25T09:29:36.470Z,280
2018-07-25T09:30:46.620Z,290
2018-07-25T09:31:56.481Z,300
2018-07-25T09:33:06.369Z,300
2018-07-25T09:34:16.613Z,305
2018-07-25T09:35:26.852Z,315
2018-07-25T09:36:36.969Z,310
2018-07-25T09:37:46.865Z,315
2018-07-25T09:38:57.090Z,320
2018-07-25T09:40:07.001Z,315
2018-07-25T09:41:17.167Z,315
2018-07-25T09:42:27.342Z,305
2018-07-25T09:43:36.943Z,300
2018-07-25T09:44:46.631Z,300
2018-07-25T09:45:56.522Z,305
2018-07-25T09:47:06.989Z,305
2018-07-25T09:48:16.972Z,310
2018-07-25T09:49:27.188Z,310
2018-07-25T09:50:36.841Z,310
2018-07-25T09:51:46.798Z,305
2018-07-25T09:52:57.142Z,310
2018-07-25T09:54:07.179Z,310
2018-07-25T09:55:16.762Z,315
2018-07-25T09:56:27.013Z,315
2018-07-25T09:57:37.189Z,325
2018-07-25T09:58:47.425Z,340
2018-07-25T09:59:57.587Z,340
2018-07-25T10:01:07.873Z,355
2018-07-25T10:02:18.113Z,375
2018-07-25T10:03:28.004Z,395
2018-07-25T10:04:37.873Z,415
2018-07-25T10:05:47.457Z,420
2018-07-25T10:06:57.415Z,430
2018-07-25T10:08:07.611Z,465
2018-07-25T10:09:17.820Z,485
2018-07-25T10:10:27.983Z,505
2018-07-25T10:11:38.156Z,500
2018-07-25T10:12:48.086Z,500
2018-07-25T10:13:58.000Z,485
2018-07-25T10:15:08.277Z,495
2018-07-25T10:16:17.833Z,520
2018-07-25T10:17:27.699Z,550
2018-07-25T10:18:37.561Z,495
2018-07-25T10:19:47.796Z,450
2018-07-25T10:20:57.796Z,435
2018-07-25T10:22:07.372Z,425
2018-07-25T10:23:17.565Z,415
2018-07-25T10:24:27.500Z,420
2018-07-25T10:25:37.415Z,455
2018-07-25T10:26:47.578Z,430
2018-07-25T10:27:57.468Z,395
2018-07-25T10:29:07.681Z,480
2018-07-25T10:30:17.646Z,490
2018-07-25T10:31:27.904Z,505
2018-07-25T10:32:37.454Z,495
2018-07-25T10:33:47.336Z,490
2018-07-25T10:34:57.185Z,490
2018-07-25T10:36:07.124Z,470
2018-07-25T10:37:17.358Z,470
2018-07-25T10:38:26.930Z,495
2018-07-25T10:39:37.055Z,495
2018-07-25T10:40:46.921Z,480
2018-07-25T10:41:57.071Z,490
2018-07-25T10:43:06.962Z,510
2018-07-25T10:44:16.803Z,515
2018-07-25T10:45:26.941Z,495
2018-07-25T10:46:36.789Z,450
2018-07-25T10:47:46.397Z,450
2018-07-25T10:48:56.820Z,440
2018-07-25T10:50:07.027Z,445
2018-07-25T10:51:16.859Z,470
2018-07-25T10:52:27.002Z,445
2018-07-25T10:53:36.877Z,465
2018-07-25T10:54:47.033Z,430
2018-07-25T10:55:57.606Z,460
2018-07-25T10:57:08.382Z,445
2018-07-25T10:58:19.655Z,430
2018-07-25T10:59:31.699Z,335
2018-07-25T11:00:43.837Z,335
2018-07-25T11:01:57.943Z,355
2018-07-25T11:03:08.347Z,410
2018-07-25T11:04:18.774Z,405
2018-07-25T11:05:28.640Z,405
2018-07-25T11:06:38.674Z,405
2018-07-25T11:07:48.806Z,400
2018-07-25T11:08:58.660Z,395
2018-07-25T11:10:08.227Z,400
2018-07-25T11:11:18.054Z,405
2018-07-25T11:12:27.669Z,410
2018-07-25T11:13:37.537Z,445
2018-07-25T11:14:47.677Z,470
2018-07-25T11:15:57.826Z,490
2018-07-25T11:17:07.115Z,485
2018-07-25T11:18:17.033Z,510
2018-07-25T11:19:26.916Z,560
2018-07-25T11:20:36.201Z,590
2018-07-25T11:21:46.333Z,640
2018-07-25T11:22:56.145Z,595
2018-07-25T11:24:05.944Z,580
2018-07-25T11:25:15.766Z,670
2018-07-25T11:26:25.337Z,725
2018-07-25T11:27:35.467Z,740
2018-07-25T11:28:45.292Z,780
2018-07-25T11:29:55.131Z,710
2018-07-25T11:31:04.929Z,715
2018-07-25T11:32:14.999Z,655
2018-07-25T11:33:24.539Z,645
2018-07-25T11:34:34.361Z,700
2018-07-25T11:35:44.490Z,880
2018-07-25T11:36:54.301Z,810
2018-07-25T11:38:04.444Z,945
2018-07-25T11:39:14.301Z,725
2018-07-25T11:40:24.101Z,675
2018-07-25T11:41:33.689Z,705
2018-07-25T11:42:43.226Z,1215
2018-07-25T11:43:53.664Z,1425
2018-07-25T11:45:03.466Z,2690
2018-07-25T11:46:12.995Z,3300
2018-07-25T11:47:23.187Z,665
2018-07-25T11:48:33.273Z,540
2018-07-25T11:49:42.813Z,2905
2018-07-25T11:50:52.620Z,3140
2018-07-25T11:52:02.437Z,3080
2018-07-25T11:53:12.039Z,3130
2018-07-25T11:54:22.104Z,3045
2018-07-25T11:55:32.752Z,3010
2018-07-25T11:56:42.991Z,3045
2018-07-25T11:57:52.788Z,3155
2018-07-25T11:59:02.917Z,3200
2018-07-25T12:00:12.739Z,2205
2018-07-25T12:01:23.319Z,2980
2018-07-25T12:02:33.163Z,2990
2018-07-25T12:03:43.254Z,2720
2018-07-25T12:04:53.112Z,2885
2018-07-25T12:06:04.235Z,1205
2018-07-25T12:07:15.037Z,2030
2018-07-25T12:08:26.269Z,1755
2018-07-25T12:09:36.672Z,1865
2018-07-25T12:10:47.514Z,1040
2018-07-25T12:11:57.417Z,725
2018-07-25T12:13:07.268Z,2975
2018-07-25T12:14:17.710Z,595
2018-07-25T12:15:27.597Z,570
2018-07-25T12:16:37.496Z,660
2018-07-25T12:17:47.643Z,2795
2018-07-25T12:18:57.773Z,2115
2018-07-25T12:20:07.648Z,530
2018-07-25T12:21:17.738Z,520
2018-07-25T12:22:28.125Z,530
2018-07-25T12:23:38.026Z,550
2018-07-25T12:24:47.917Z,550
2018-07-25T12:25:58.156Z,555
2018-07-25T12:27:08.531Z,545
2018-07-25T12:28:18.800Z,580
2018-07-25T12:29:28.691Z,605
2018-07-25T12:30:37.993Z,700
2018-07-25T12:31:48.170Z,1990
2018-07-25T12:32:57.785Z,1025
2018-07-25T12:34:07.985Z,750
2018-07-25T12:35:18.200Z,690
2018-07-25T12:36:28.048Z,730
2018-07-25T12:37:38.221Z,2010
2018-07-25T12:38:47.823Z,835
2018-07-25T12:39:58.043Z,710
2018-07-25T12:41:07.963Z,540
2018-07-25T12:42:18.179Z,505
2018-07-25T12:43:28.061Z,510
2018-07-25T12:44:37.666Z,500
2018-07-25T12:45:47.351Z,545
2018-07-25T12:46:57.534Z,575
2018-07-25T12:48:07.705Z,510
2018-07-25T12:49:17.300Z,470
2018-07-25T12:50:27.519Z,495
2018-07-25T12:51:37.712Z,580
2018-07-25T12:52:47.593Z,690
2018-07-25T12:53:58.191Z,1565
2018-07-25T12:55:07.896Z,2355
2018-07-25T12:56:18.088Z,2120
2018-07-25T12:57:27.740Z,895
2018-07-25T12:58:37.934Z,1920
2018-07-25T12:59:47.232Z,1140
2018-07-25T13:00:57.126Z,830
2018-07-25T13:02:07.566Z,815
2018-07-25T13:03:17.639Z,1090
2018-07-25T13:04:27.524Z,1060
2018-07-25T13:05:37.409Z,1465
2018-07-25T13:06:47.035Z,2020
2018-07-25T13:07:56.918Z,2275
2018-07-25T13:09:11.111Z,2610
2018-07-25T13:10:21.371Z,2730
2018-07-25T13:11:31.302Z,2490
2018-07-25T13:12:40.910Z,2730
2018-07-25T13:13:50.811Z,690
2018-07-25T13:15:01.023Z,715
2018-07-25T13:16:11.328Z,1300
2018-07-25T13:17:20.631Z,795
2018-07-25T13:18:30.545Z,1150
2018-07-25T13:19:40.728Z,705
2018-07-25T13:20:50.684Z,620
2018-07-25T13:22:00.574Z,645
2018-07-25T13:23:11.227Z,535
2018-07-25T13:24:21.400Z,495
2018-07-25T13:25:31.577Z,470
2018-07-25T13:26:41.218Z,495
2018-07-25T13:27:51.388Z,535
2018-07-25T13:29:02.152Z,700
2018-07-25T13:30:12.025Z,650
2018-07-25T13:31:22.240Z,610
2018-07-25T13:32:32.461Z,645
2018-07-25T13:33:42.354Z,695
2018-07-25T13:34:51.927Z,945
2018-07-25T13:36:02.457Z,1080
2018-07-25T13:37:12.795Z,1075
2018-07-25T13:38:22.736Z,925
2018-07-25T13:39:32.916Z,870
2018-07-25T13:40:42.527Z,795
2018-07-25T13:41:51.849Z,795
2018-07-25T13:43:02.207Z,815
2018-07-25T13:44:12.136Z,805
2018-07-25T13:45:22.477Z,725
2018-07-25T13:46:33.191Z,710
2018-07-25T13:47:44.692Z,765
2018-07-25T13:48:56.473Z,775
2018-07-25T13:50:07.975Z,855
2018-07-25T13:51:19.736Z,775
2018-07-25T13:52:31.061Z,880
2018-07-25T13:53:41.648Z,865
2018-07-25T13:54:52.819Z,915
2018-07-25T13:56:03.275Z,745
2018-07-25T13:57:13.444Z,640
2018-07-25T13:58:23.795Z,550
2018-07-25T13:59:33.688Z,490
2018-07-25T14:00:43.848Z,490
2018-07-25T14:01:53.788Z,510
2018-07-25T14:03:03.923Z,500
2018-07-25T14:04:13.524Z,480
2018-07-25T14:05:24.242Z,480
2018-07-25T14:06:34.108Z,485
2018-07-25T14:07:44.318Z,480
2018-07-25T14:08:54.470Z,475
2018-07-25T14:10:04.050Z,460
2018-07-25T14:11:13.942Z,405
2018-07-25T14:12:24.099Z,405
2018-07-25T14:13:34.067Z,415
2018-07-25T14:14:44.223Z,430
2018-07-25T14:15:54.402Z,445
2018-07-25T14:17:04.595Z,475
2018-07-25T14:18:14.986Z,490
2018-07-25T14:19:24.934Z,530
2018-07-25T14:20:34.545Z,645
2018-07-25T14:21:44.429Z,3050
2018-07-25T14:22:54.615Z,2940
2018-07-25T14:24:05.949Z,1720
2018-07-25T14:25:16.165Z,2330
2018-07-25T14:26:26.374Z,1890
2018-07-25T14:27:36.575Z,660
2018-07-25T14:28:46.863Z,630
2018-07-25T14:29:57.177Z,1015
2018-07-25T14:31:06.834Z,1250
2018-07-25T14:32:16.432Z,730
2018-07-25T14:33:26.021Z,750
2018-07-25T14:34:35.905Z,800
2018-07-25T14:35:46.127Z,2230
2018-07-25T14:36:56.360Z,2910
2018-07-25T14:38:05.950Z,3030
2018-07-25T14:39:16.183Z,2610
2018-07-25T14:40:27.196Z,2755
2018-07-25T14:41:37.210Z,2910
2018-07-25T14:42:46.881Z,1895
2018-07-25T14:43:56.757Z,1800
2018-07-25T14:45:06.676Z,2705
2018-07-25T14:46:16.603Z,2835
2018-07-25T14:47:27.348Z,2960
2018-07-25T14:48:37.597Z,2995
2018-07-25T14:49:47.484Z,2800
2018-07-25T14:50:57.683Z,2580
2018-07-25T14:52:07.266Z,2835
2018-07-25T14:53:17.492Z,2825
2018-07-25T14:54:27.819Z,2795
2018-07-25T14:55:37.733Z,1930
2018-07-25T14:56:48.003Z,1300
2018-07-25T14:57:58.169Z,1595
2018-07-25T14:59:08.391Z,1665
2018-07-25T15:00:18.358Z,1315
2018-07-25T15:01:28.691Z,1755
2018-07-25T15:02:39.383Z,2060
2018-07-25T15:03:49.578Z,2360
2018-07-25T15:04:59.515Z,2915
2018-07-25T15:06:09.766Z,2430
2018-07-25T15:07:19.357Z,2435
2018-07-25T15:08:29.250Z,1585
2018-07-25T15:09:38.561Z,1305
2018-07-25T15:10:48.188Z,1450
2018-07-25T15:11:58.404Z,1825
2018-07-25T15:13:09.028Z,1745
2018-07-25T15:14:19.307Z,1360
2018-07-25T15:15:29.494Z,1100
2018-07-25T15:16:39.450Z,1400
2018-07-25T15:17:49.357Z,945
2018-07-25T15:18:59.617Z,1655
2018-07-25T15:20:08.952Z,2830
2018-07-25T15:21:19.134Z,2915
2018-07-25T15:22:29.302Z,1790
2018-07-25T15:23:39.059Z,1155
2018-07-25T15:24:49.289Z,945
2018-07-25T15:25:59.221Z,965
2018-07-25T15:27:09.141Z,1235
2018-07-25T15:28:19.644Z,1170
2018-07-25T15:29:30.488Z,1045
2018-07-25T15:30:40.490Z,835
2018-07-25T15:31:50.155Z,770
2018-07-25T15:32:59.824Z,950
2018-07-25T15:34:09.788Z,630
2018-07-25T15:35:19.823Z,655
2018-07-25T15:36:29.490Z,845
2018-07-25T15:37:39.742Z,665
2018-07-25T15:38:50.067Z,1450
2018-07-25T15:40:00.351Z,1255
2018-07-25T15:41:10.638Z,1590
2018-07-25T15:42:20.595Z,2125
2018-07-25T15:43:30.222Z,2305
2018-07-25T15:44:40.419Z,2590
2018-07-25T15:45:50.307Z,2605
2018-07-25T15:47:00.267Z,2565
2018-07-25T15:48:10.486Z,1870
2018-07-25T15:49:20.705Z,2165
2018-07-25T15:50:30.599Z,1930
2018-07-25T15:51:40.765Z,2105
2018-07-25T15:52:51.141Z,2190
2018-07-25T15:54:01.398Z,1970
2018-07-25T15:55:11.293Z,1820
2018-07-25T15:56:21.447Z,1770
2018-07-25T15:57:32.079Z,2310
2018-07-25T15:58:43.380Z,2335
2018-07-25T15:59:53.908Z,2000
2018-07-25T16:01:05.959Z,1595
2018-07-25T16:02:16.000Z,1150
2018-07-25T16:03:27.406Z,1100
2018-07-25T16:04:38.355Z,825
2018-07-25T16:05:48.910Z,735
2018-07-25T16:06:59.524Z,645
2018-07-25T16:08:09.763Z,665
2018-07-25T16:09:20.353Z,655
2018-07-25T16:10:30.587Z,675
2018-07-25T16:11:40.170Z,800
2018-07-25T16:12:50.374Z,970
2018-07-25T16:13:59.990Z,945
2018-07-25T16:15:09.843Z,905